sensor_id;sensor_type;location;lat;lon;timestamp;temperature;humidity
10678;DHT22;5387;48.722;9.110;2023-07-30T00:01:01;16.70;99.90
10678;DHT22;5387;48.722;9.110;2023-07-30T00:03:28;16.60;99.90
10678;DHT22;5387;48.722;9.110;2023-07-30T00:05:55;16.60;99.90
10678;DHT22;5387;48.722;9.110;2023-07-30T00:08:22;16.60;99.90
10678;DHT22;5387;48.722;9.110;2023-07-30T00:10:50;16.60;99.90
10678;DHT22;5387;48.722;9.110;2023-07-30T00:13:17;16.70;99.90
10678;DHT22;5387;48.722;9.110;2023-07-30T00:15:45;16.80;99.90
10678;DHT22;5387;48.722;9.110;2023-07-30T00:18:13;16.80;99.90
10678;DHT22;5387;48.722;9.110;2023-07-30T00:20:39;16.90;99.90
10678;DHT22;5387;48.722;9.110;2023-07-30T00:23:06;17.10;99.90
10678;DHT22;5387;48.722;9.110;2023-07-30T00:25:33;16.90;99.90
10678;DHT22;5387;48.722;9.110;2023-07-30T00:28:01;17.00;99.90
10678;DHT22;5387;48.722;9.110;2023-07-30T00:30:28;17.10;99.90
10678;DHT22;5387;48.722;9.110;2023-07-30T00:32:55;17.00;99.90
10678;DHT22;5387;48.722;9.110;2023-07-30T00:35:21;17.10;99.90
10678;DHT22;5387;48.722;9.110;2023-07-30T00:37:48;17.00;99.90
10678;DHT22;5387;48.722;9.110;2023-07-30T00:40:15;17.00;99.90
10678;DHT22;5387;48.722;9.110;2023-07-30T00:42:42;17.10;99.90
10678;DHT22;5387;48.722;9.110;2023-07-30T00:45:11;17.10;99.90
10678;DHT22;5387;48.722;9.110;2023-07-30T00:47:38;17.00;99.90
10678;DHT22;5387;48.722;9.110;2023-07-30T00:50:06;16.90;99.90
10678;DHT22;5387;48.722;9.110;2023-07-30T00:52:34;17.00;99.90
10678;DHT22;5387;48.722;9.110;2023-07-30T00:55:02;17.10;99.90
10678;DHT22;5387;48.722;9.110;2023-07-30T00:57:29;17.10;99.90
10678;DHT22;5387;48.722;9.110;2023-07-30T00:59:57;17.00;99.90
10678;DHT22;5387;48.722;9.110;2023-07-30T01:02:26;17.10;99.90
10678;DHT22;5387;48.722;9.110;2023-07-30T01:04:54;17.10;99.90
10678;DHT22;5387;48.722;9.110;2023-07-30T01:07:21;17.20;99.90
10678;DHT22;5387;48.722;9.110;2023-07-30T01:09:47;17.10;99.90
10678;DHT22;5387;48.722;9.110;2023-07-30T01:12:14;17.20;99.90
10678;DHT22;5387;48.722;9.110;2023-07-30T01:14:41;17.20;99.90
10678;DHT22;5387;48.722;9.110;2023-07-30T01:17:09;17.10;99.90
10678;DHT22;5387;48.722;9.110;2023-07-30T01:19:37;17.10;99.90
10678;DHT22;5387;48.722;9.110;2023-07-30T01:22:05;17.20;99.90
10678;DHT22;5387;48.722;9.110;2023-07-30T01:24:32;17.10;99.90
10678;DHT22;5387;48.722;9.110;2023-07-30T01:27:02;17.10;99.90
10678;DHT22;5387;48.722;9.110;2023-07-30T01:29:36;17.10;99.90
10678;DHT22;5387;48.722;9.110;2023-07-30T01:32:07;17.10;99.90
10678;DHT22;5387;48.722;9.110;2023-07-30T01:34:35;17.00;99.90
10678;DHT22;5387;48.722;9.110;2023-07-30T01:37:06;17.10;99.90
10678;DHT22;5387;48.722;9.110;2023-07-30T01:39:36;17.10;99.90
10678;DHT22;5387;48.722;9.110;2023-07-30T01:42:04;16.90;99.90
10678;DHT22;5387;48.722;9.110;2023-07-30T01:44:31;16.90;99.90
10678;DHT22;5387;48.722;9.110;2023-07-30T01:46:58;16.90;99.90
10678;DHT22;5387;48.722;9.110;2023-07-30T01:49:25;16.90;99.90
10678;DHT22;5387;48.722;9.110;2023-07-30T01:51:52;16.80;99.90
10678;DHT22;5387;48.722;9.110;2023-07-30T01:54:20;16.80;99.90
10678;DHT22;5387;48.722;9.110;2023-07-30T01:56:47;16.90;99.90
10678;DHT22;5387;48.722;9.110;2023-07-30T01:59:14;16.80;99.90
10678;DHT22;5387;48.722;9.110;2023-07-30T02:01:41;16.70;99.90
10678;DHT22;5387;48.722;9.110;2023-07-30T02:04:08;16.80;99.90
10678;DHT22;5387;48.722;9.110;2023-07-30T02:06:34;16.80;99.90
10678;DHT22;5387;48.722;9.110;2023-07-30T02:09:01;16.80;99.90
10678;DHT22;5387;48.722;9.110;2023-07-30T02:11:30;16.80;99.90
10678;DHT22;5387;48.722;9.110;2023-07-30T02:13:56;16.80;99.90
10678;DHT22;5387;48.722;9.110;2023-07-30T02:16:23;16.70;99.90
10678;DHT22;5387;48.722;9.110;2023-07-30T02:18:50;16.70;99.90
10678;DHT22;5387;48.722;9.110;2023-07-30T02:21:17;16.60;99.90
10678;DHT22;5387;48.722;9.110;2023-07-30T02:23:43;16.60;99.90
10678;DHT22;5387;48.722;9.110;2023-07-30T02:26:10;16.60;99.90
10678;DHT22;5387;48.722;9.110;2023-07-30T02:28:38;16.60;99.90
10678;DHT22;5387;48.722;9.110;2023-07-30T02:31:05;16.60;99.90
10678;DHT22;5387;48.722;9.110;2023-07-30T02:33:32;16.40;99.90
10678;DHT22;5387;48.722;9.110;2023-07-30T02:35:59;16.40;99.90
10678;DHT22;5387;48.722;9.110;2023-07-30T02:38:25;16.60;99.90
10678;DHT22;5387;48.722;9.110;2023-07-30T02:40:52;16.50;99.90
10678;DHT22;5387;48.722;9.110;2023-07-30T02:43:19;16.50;99.90
10678;DHT22;5387;48.722;9.110;2023-07-30T02:45:48;16.50;99.90
10678;DHT22;5387;48.722;9.110;2023-07-30T02:48:15;16.60;99.90
10678;DHT22;5387;48.722;9.110;2023-07-30T02:50:42;16.60;99.90
10678;DHT22;5387;48.722;9.110;2023-07-30T02:53:09;16.60;99.90
10678;DHT22;5387;48.722;9.110;2023-07-30T02:55:36;16.50;99.90
10678;DHT22;5387;48.722;9.110;2023-07-30T02:58:02;16.30;99.90
10678;DHT22;5387;48.722;9.110;2023-07-30T03:00:29;16.30;99.90
10678;DHT22;5387;48.722;9.110;2023-07-30T03:02:57;16.40;99.90
10678;DHT22;5387;48.722;9.110;2023-07-30T03:05:25;16.20;99.90
10678;DHT22;5387;48.722;9.110;2023-07-30T03:07:52;16.20;99.90
10678;DHT22;5387;48.722;9.110;2023-07-30T03:10:19;16.30;99.90
10678;DHT22;5387;48.722;9.110;2023-07-30T03:12:46;16.30;99.90
10678;DHT22;5387;48.722;9.110;2023-07-30T03:15:13;16.30;99.90
10678;DHT22;5387;48.722;9.110;2023-07-30T03:17:39;16.30;99.90
10678;DHT22;5387;48.722;9.110;2023-07-30T03:20:08;16.30;99.90
10678;DHT22;5387;48.722;9.110;2023-07-30T03:22:35;16.30;99.90
10678;DHT22;5387;48.722;9.110;2023-07-30T03:25:02;16.30;99.90
10678;DHT22;5387;48.722;9.110;2023-07-30T03:27:29;16.30;99.90
10678;DHT22;5387;48.722;9.110;2023-07-30T03:29:56;16.30;99.90
10678;DHT22;5387;48.722;9.110;2023-07-30T03:32:23;16.30;99.90
10678;DHT22;5387;48.722;9.110;2023-07-30T03:34:50;16.40;99.90
10678;DHT22;5387;48.722;9.110;2023-07-30T03:37:18;16.30;99.90
10678;DHT22;5387;48.722;9.110;2023-07-30T03:39:44;16.40;99.90
10678;DHT22;5387;48.722;9.110;2023-07-30T03:42:11;16.50;99.90
10678;DHT22;5387;48.722;9.110;2023-07-30T03:44:38;16.50;99.90
10678;DHT22;5387;48.722;9.110;2023-07-30T03:47:05;16.40;99.90
10678;DHT22;5387;48.722;9.110;2023-07-30T03:49:32;16.50;99.90
10678;DHT22;5387;48.722;9.110;2023-07-30T03:51:59;16.50;99.90
10678;DHT22;5387;48.722;9.110;2023-07-30T03:54:27;16.50;99.90
10678;DHT22;5387;48.722;9.110;2023-07-30T03:56:54;16.50;99.90
10678;DHT22;5387;48.722;9.110;2023-07-30T03:59:21;16.50;99.90
10678;DHT22;5387;48.722;9.110;2023-07-30T04:01:48;16.50;99.90
10678;DHT22;5387;48.722;9.110;2023-07-30T04:04:15;16.50;99.90
10678;DHT22;5387;48.722;9.110;2023-07-30T04:06:41;16.50;99.90
10678;DHT22;5387;48.722;9.110;2023-07-30T04:09:08;16.50;99.90
10678;DHT22;5387;48.722;9.110;2023-07-30T04:11:36;16.50;99.90
10678;DHT22;5387;48.722;9.110;2023-07-30T04:14:03;16.50;99.90
10678;DHT22;5387;48.722;9.110;2023-07-30T04:16:30;16.40;99.90
10678;DHT22;5387;48.722;9.110;2023-07-30T04:18:57;16.50;99.90
10678;DHT22;5387;48.722;9.110;2023-07-30T04:21:24;16.50;99.90
10678;DHT22;5387;48.722;9.110;2023-07-30T04:23:51;16.50;99.90
10678;DHT22;5387;48.722;9.110;2023-07-30T04:26:18;16.50;99.90
10678;DHT22;5387;48.722;9.110;2023-07-30T04:28:46;16.40;99.90
10678;DHT22;5387;48.722;9.110;2023-07-30T04:31:13;16.40;99.90
10678;DHT22;5387;48.722;9.110;2023-07-30T04:33:39;16.40;99.90
10678;DHT22;5387;48.722;9.110;2023-07-30T04:36:06;16.50;99.90
10678;DHT22;5387;48.722;9.110;2023-07-30T04:38:33;16.40;99.90
10678;DHT22;5387;48.722;9.110;2023-07-30T04:41:02;16.50;99.90
10678;DHT22;5387;48.722;9.110;2023-07-30T04:43:28;16.60;99.90
10678;DHT22;5387;48.722;9.110;2023-07-30T04:45:57;16.60;99.90
10678;DHT22;5387;48.722;9.110;2023-07-30T04:48:23;16.40;99.90
10678;DHT22;5387;48.722;9.110;2023-07-30T04:50:50;16.40;99.90
10678;DHT22;5387;48.722;9.110;2023-07-30T04:53:17;16.60;99.90
10678;DHT22;5387;48.722;9.110;2023-07-30T04:55:46;16.50;99.90
10678;DHT22;5387;48.722;9.110;2023-07-30T04:58:12;16.60;99.90
10678;DHT22;5387;48.722;9.110;2023-07-30T05:00:39;16.60;99.90
10678;DHT22;5387;48.722;9.110;2023-07-30T05:03:07;16.60;99.90
10678;DHT22;5387;48.722;9.110;2023-07-30T05:05:35;16.80;99.90
10678;DHT22;5387;48.722;9.110;2023-07-30T05:08:02;16.70;99.90
10678;DHT22;5387;48.722;9.110;2023-07-30T05:10:29;16.70;99.90
10678;DHT22;5387;48.722;9.110;2023-07-30T05:12:56;16.70;99.90
10678;DHT22;5387;48.722;9.110;2023-07-30T05:15:23;16.70;99.90
10678;DHT22;5387;48.722;9.110;2023-07-30T05:17:49;16.70;99.90
10678;DHT22;5387;48.722;9.110;2023-07-30T05:20:18;16.70;99.90
10678;DHT22;5387;48.722;9.110;2023-07-30T05:22:44;16.70;99.90
10678;DHT22;5387;48.722;9.110;2023-07-30T05:25:12;16.80;99.90
10678;DHT22;5387;48.722;9.110;2023-07-30T05:27:38;16.90;99.90
10678;DHT22;5387;48.722;9.110;2023-07-30T05:30:06;16.80;99.90
10678;DHT22;5387;48.722;9.110;2023-07-30T05:32:33;17.00;99.90
10678;DHT22;5387;48.722;9.110;2023-07-30T05:35:00;17.30;99.90
10678;DHT22;5387;48.722;9.110;2023-07-30T05:37:28;17.20;99.90
10678;DHT22;5387;48.722;9.110;2023-07-30T05:39:55;17.30;99.90
10678;DHT22;5387;48.722;9.110;2023-07-30T05:42:22;17.30;99.90
10678;DHT22;5387;48.722;9.110;2023-07-30T05:44:49;17.30;99.90
10678;DHT22;5387;48.722;9.110;2023-07-30T05:47:15;17.30;99.90
10678;DHT22;5387;48.722;9.110;2023-07-30T05:49:42;17.30;99.90
10678;DHT22;5387;48.722;9.110;2023-07-30T05:52:09;17.30;99.90
10678;DHT22;5387;48.722;9.110;2023-07-30T05:54:37;17.40;99.90
10678;DHT22;5387;48.722;9.110;2023-07-30T05:57:04;17.40;99.90
10678;DHT22;5387;48.722;9.110;2023-07-30T05:59:31;17.40;99.90
10678;DHT22;5387;48.722;9.110;2023-07-30T06:02:02;17.50;99.90
10678;DHT22;5387;48.722;9.110;2023-07-30T06:04:29;17.50;99.90
10678;DHT22;5387;48.722;9.110;2023-07-30T06:06:57;17.60;99.90
10678;DHT22;5387;48.722;9.110;2023-07-30T06:09:24;17.60;99.90
10678;DHT22;5387;48.722;9.110;2023-07-30T06:11:52;17.60;99.90
10678;DHT22;5387;48.722;9.110;2023-07-30T06:14:19;17.50;99.90
10678;DHT22;5387;48.722;9.110;2023-07-30T06:16:46;17.60;99.90
10678;DHT22;5387;48.722;9.110;2023-07-30T06:19:13;17.60;99.90
10678;DHT22;5387;48.722;9.110;2023-07-30T06:21:39;17.60;99.90
10678;DHT22;5387;48.722;9.110;2023-07-30T06:24:06;17.60;99.90
10678;DHT22;5387;48.722;9.110;2023-07-30T06:26:33;17.50;99.90
10678;DHT22;5387;48.722;9.110;2023-07-30T06:29:01;17.50;99.90
10678;DHT22;5387;48.722;9.110;2023-07-30T06:31:28;17.40;99.90
10678;DHT22;5387;48.722;9.110;2023-07-30T06:33:55;17.50;99.90
10678;DHT22;5387;48.722;9.110;2023-07-30T06:36:22;17.60;99.90
10678;DHT22;5387;48.722;9.110;2023-07-30T06:38:49;17.70;99.90
10678;DHT22;5387;48.722;9.110;2023-07-30T06:41:16;17.70;99.90
10678;DHT22;5387;48.722;9.110;2023-07-30T06:43:43;17.80;99.90
10678;DHT22;5387;48.722;9.110;2023-07-30T06:46:11;18.20;99.90
10678;DHT22;5387;48.722;9.110;2023-07-30T06:48:38;18.60;99.90
10678;DHT22;5387;48.722;9.110;2023-07-30T06:51:06;18.70;99.90
10678;DHT22;5387;48.722;9.110;2023-07-30T06:53:33;18.90;99.90
10678;DHT22;5387;48.722;9.110;2023-07-30T06:56:00;18.80;99.90
10678;DHT22;5387;48.722;9.110;2023-07-30T06:58:27;18.70;99.90
10678;DHT22;5387;48.722;9.110;2023-07-30T07:00:54;18.60;99.90
10678;DHT22;5387;48.722;9.110;2023-07-30T07:03:22;18.70;99.90
10678;DHT22;5387;48.722;9.110;2023-07-30T07:05:53;18.70;99.90
10678;DHT22;5387;48.722;9.110;2023-07-30T07:08:20;18.70;99.90
10678;DHT22;5387;48.722;9.110;2023-07-30T07:10:47;18.80;99.90
10678;DHT22;5387;48.722;9.110;2023-07-30T07:13:13;18.90;99.90
10678;DHT22;5387;48.722;9.110;2023-07-30T07:15:41;18.90;99.90
10678;DHT22;5387;48.722;9.110;2023-07-30T07:18:07;19.00;99.90
10678;DHT22;5387;48.722;9.110;2023-07-30T07:20:36;19.00;99.90
10678;DHT22;5387;48.722;9.110;2023-07-30T07:23:03;19.00;99.90
10678;DHT22;5387;48.722;9.110;2023-07-30T07:25:29;19.00;99.90
10678;DHT22;5387;48.722;9.110;2023-07-30T07:27:56;18.80;99.90
10678;DHT22;5387;48.722;9.110;2023-07-30T07:30:23;18.70;99.90
10678;DHT22;5387;48.722;9.110;2023-07-30T07:32:50;18.40;99.90
10678;DHT22;5387;48.722;9.110;2023-07-30T07:35:18;18.10;99.90
10678;DHT22;5387;48.722;9.110;2023-07-30T07:37:47;18.00;99.90
10678;DHT22;5387;48.722;9.110;2023-07-30T07:40:15;17.80;99.90
10678;DHT22;5387;48.722;9.110;2023-07-30T07:42:42;17.70;99.90
10678;DHT22;5387;48.722;9.110;2023-07-30T07:45:09;17.70;99.90
10678;DHT22;5387;48.722;9.110;2023-07-30T07:47:35;17.60;99.90
10678;DHT22;5387;48.722;9.110;2023-07-30T07:50:02;17.70;99.90
10678;DHT22;5387;48.722;9.110;2023-07-30T07:52:29;17.70;99.90
10678;DHT22;5387;48.722;9.110;2023-07-30T07:54:57;17.80;99.90
10678;DHT22;5387;48.722;9.110;2023-07-30T07:57:24;17.80;99.90
10678;DHT22;5387;48.722;9.110;2023-07-30T07:59:51;18.10;99.90
10678;DHT22;5387;48.722;9.110;2023-07-30T08:02:18;18.30;99.90
10678;DHT22;5387;48.722;9.110;2023-07-30T08:04:45;18.50;99.90
10678;DHT22;5387;48.722;9.110;2023-07-30T08:07:11;18.70;99.90
10678;DHT22;5387;48.722;9.110;2023-07-30T08:09:38;18.70;99.90
10678;DHT22;5387;48.722;9.110;2023-07-30T08:12:07;18.70;99.90
10678;DHT22;5387;48.722;9.110;2023-07-30T08:14:34;19.00;99.90
10678;DHT22;5387;48.722;9.110;2023-07-30T08:17:01;19.10;99.90
10678;DHT22;5387;48.722;9.110;2023-07-30T08:19:27;19.10;99.90
10678;DHT22;5387;48.722;9.110;2023-07-30T08:21:54;19.30;99.90
10678;DHT22;5387;48.722;9.110;2023-07-30T08:24:22;19.50;99.90
10678;DHT22;5387;48.722;9.110;2023-07-30T08:26:48;19.90;99.90
10678;DHT22;5387;48.722;9.110;2023-07-30T08:29:17;20.40;99.90
10678;DHT22;5387;48.722;9.110;2023-07-30T08:31:43;20.70;99.90
10678;DHT22;5387;48.722;9.110;2023-07-30T08:34:10;20.40;99.90
10678;DHT22;5387;48.722;9.110;2023-07-30T08:36:37;20.20;99.90
10678;DHT22;5387;48.722;9.110;2023-07-30T08:39:04;19.60;99.90
10678;DHT22;5387;48.722;9.110;2023-07-30T08:41:31;19.70;99.90
10678;DHT22;5387;48.722;9.110;2023-07-30T08:43:58;19.60;99.90
10678;DHT22;5387;48.722;9.110;2023-07-30T08:46:27;19.50;99.90
10678;DHT22;5387;48.722;9.110;2023-07-30T08:48:54;19.50;99.90
10678;DHT22;5387;48.722;9.110;2023-07-30T08:51:23;19.50;99.90
10678;DHT22;5387;48.722;9.110;2023-07-30T08:53:51;19.60;99.90
10678;DHT22;5387;48.722;9.110;2023-07-30T08:56:18;19.80;99.90
10678;DHT22;5387;48.722;9.110;2023-07-30T08:58:46;20.00;99.90
10678;DHT22;5387;48.722;9.110;2023-07-30T09:01:16;20.10;99.90
10678;DHT22;5387;48.722;9.110;2023-07-30T09:03:47;20.00;99.90
10678;DHT22;5387;48.722;9.110;2023-07-30T09:06:16;20.30;99.90
10678;DHT22;5387;48.722;9.110;2023-07-30T09:08:42;20.40;99.90
10678;DHT22;5387;48.722;9.110;2023-07-30T09:11:10;20.60;99.90
10678;DHT22;5387;48.722;9.110;2023-07-30T09:13:38;21.00;99.90
10678;DHT22;5387;48.722;9.110;2023-07-30T09:16:09;20.80;99.90
10678;DHT22;5387;48.722;9.110;2023-07-30T09:18:40;20.60;99.90
10678;DHT22;5387;48.722;9.110;2023-07-30T09:21:10;20.70;99.90
10678;DHT22;5387;48.722;9.110;2023-07-30T09:23:40;20.70;99.90
10678;DHT22;5387;48.722;9.110;2023-07-30T09:26:07;20.60;99.90
10678;DHT22;5387;48.722;9.110;2023-07-30T09:28:34;20.50;99.90
10678;DHT22;5387;48.722;9.110;2023-07-30T09:31:02;20.10;99.90
10678;DHT22;5387;48.722;9.110;2023-07-30T09:33:31;19.90;99.90
10678;DHT22;5387;48.722;9.110;2023-07-30T09:35:57;20.00;99.90
10678;DHT22;5387;48.722;9.110;2023-07-30T09:38:26;20.00;99.90
10678;DHT22;5387;48.722;9.110;2023-07-30T09:41:01;20.00;99.90
10678;DHT22;5387;48.722;9.110;2023-07-30T09:43:29;19.70;99.90
10678;DHT22;5387;48.722;9.110;2023-07-30T09:46:01;19.70;99.90
10678;DHT22;5387;48.722;9.110;2023-07-30T09:48:30;19.70;99.90
10678;DHT22;5387;48.722;9.110;2023-07-30T09:50:58;19.80;99.90
10678;DHT22;5387;48.722;9.110;2023-07-30T09:53:27;20.10;99.90
10678;DHT22;5387;48.722;9.110;2023-07-30T09:55:55;20.40;99.90
10678;DHT22;5387;48.722;9.110;2023-07-30T09:58:21;20.60;99.90
10678;DHT22;5387;48.722;9.110;2023-07-30T10:00:49;20.80;99.90
10678;DHT22;5387;48.722;9.110;2023-07-30T10:03:16;21.00;99.90
10678;DHT22;5387;48.722;9.110;2023-07-30T10:05:44;21.30;99.90
10678;DHT22;5387;48.722;9.110;2023-07-30T10:08:19;21.40;99.90
10678;DHT22;5387;48.722;9.110;2023-07-30T10:10:49;21.30;99.90
10678;DHT22;5387;48.722;9.110;2023-07-30T10:13:17;21.10;99.90
10678;DHT22;5387;48.722;9.110;2023-07-30T10:15:46;21.20;99.90
10678;DHT22;5387;48.722;9.110;2023-07-30T10:18:13;21.40;99.90
10678;DHT22;5387;48.722;9.110;2023-07-30T10:20:40;21.40;99.90
10678;DHT22;5387;48.722;9.110;2023-07-30T10:23:07;21.60;99.90
10678;DHT22;5387;48.722;9.110;2023-07-30T10:25:45;21.50;99.90
10678;DHT22;5387;48.722;9.110;2023-07-30T10:28:28;21.30;99.90
10678;DHT22;5387;48.722;9.110;2023-07-30T10:30:58;21.70;99.90
10678;DHT22;5387;48.722;9.110;2023-07-30T10:33:43;21.70;99.90
10678;DHT22;5387;48.722;9.110;2023-07-30T10:36:10;21.80;99.90
10678;DHT22;5387;48.722;9.110;2023-07-30T10:38:38;22.00;99.90
10678;DHT22;5387;48.722;9.110;2023-07-30T10:41:08;22.10;99.90
10678;DHT22;5387;48.722;9.110;2023-07-30T10:43:39;21.90;99.90
10678;DHT22;5387;48.722;9.110;2023-07-30T10:46:07;21.90;99.90
10678;DHT22;5387;48.722;9.110;2023-07-30T10:48:35;22.00;99.90
10678;DHT22;5387;48.722;9.110;2023-07-30T10:51:05;22.10;99.90
10678;DHT22;5387;48.722;9.110;2023-07-30T10:53:32;21.90;99.90
10678;DHT22;5387;48.722;9.110;2023-07-30T10:56:02;21.90;99.90
10678;DHT22;5387;48.722;9.110;2023-07-30T10:58:30;22.30;99.90
10678;DHT22;5387;48.722;9.110;2023-07-30T11:07:50;22.80;99.90
10678;DHT22;5387;48.722;9.110;2023-07-30T11:10:17;22.80;99.90
10678;DHT22;5387;48.722;9.110;2023-07-30T11:12:44;23.00;99.90
10678;DHT22;5387;48.722;9.110;2023-07-30T11:21:44;22.30;99.90
10678;DHT22;5387;48.722;9.110;2023-07-30T11:24:13;22.20;99.90
10678;DHT22;5387;48.722;9.110;2023-07-30T11:26:40;22.60;99.90
10678;DHT22;5387;48.722;9.110;2023-07-30T11:29:14;22.90;99.90
10678;DHT22;5387;48.722;9.110;2023-07-30T11:31:42;22.60;99.90
10678;DHT22;5387;48.722;9.110;2023-07-30T11:34:09;21.50;99.90
10678;DHT22;5387;48.722;9.110;2023-07-30T11:36:36;21.10;99.90
10678;DHT22;5387;48.722;9.110;2023-07-30T11:39:03;21.00;99.90
10678;DHT22;5387;48.722;9.110;2023-07-30T11:41:32;20.60;99.90
10678;DHT22;5387;48.722;9.110;2023-07-30T11:43:59;20.80;99.90
10678;DHT22;5387;48.722;9.110;2023-07-30T11:46:26;20.70;99.90
10678;DHT22;5387;48.722;9.110;2023-07-30T11:49:11;20.60;99.90
10678;DHT22;5387;48.722;9.110;2023-07-30T11:51:38;20.70;99.90
10678;DHT22;5387;48.722;9.110;2023-07-30T11:54:05;20.80;99.90
10678;DHT22;5387;48.722;9.110;2023-07-30T11:56:34;20.80;99.90
10678;DHT22;5387;48.722;9.110;2023-07-30T11:59:01;21.30;99.90
10678;DHT22;5387;48.722;9.110;2023-07-30T12:01:30;21.30;99.90
10678;DHT22;5387;48.722;9.110;2023-07-30T12:03:57;21.20;99.90
10678;DHT22;5387;48.722;9.110;2023-07-30T12:06:38;20.70;99.90
10678;DHT22;5387;48.722;9.110;2023-07-30T12:09:10;20.70;99.90
10678;DHT22;5387;48.722;9.110;2023-07-30T12:11:46;21.80;99.90
10678;DHT22;5387;48.722;9.110;2023-07-30T12:14:13;23.30;99.90
10678;DHT22;5387;48.722;9.110;2023-07-30T12:16:40;23.80;99.90
10678;DHT22;5387;48.722;9.110;2023-07-30T12:19:08;23.30;99.90
10678;DHT22;5387;48.722;9.110;2023-07-30T12:21:34;22.20;99.90
10678;DHT22;5387;48.722;9.110;2023-07-30T12:24:01;22.90;99.90
10678;DHT22;5387;48.722;9.110;2023-07-30T12:26:28;23.10;99.90
10678;DHT22;5387;48.722;9.110;2023-07-30T12:28:57;22.90;99.90
10678;DHT22;5387;48.722;9.110;2023-07-30T12:31:23;22.00;99.90
10678;DHT22;5387;48.722;9.110;2023-07-30T12:33:50;21.30;99.90
10678;DHT22;5387;48.722;9.110;2023-07-30T12:36:17;20.90;99.90
10678;DHT22;5387;48.722;9.110;2023-07-30T12:38:44;21.30;99.90
10678;DHT22;5387;48.722;9.110;2023-07-30T12:41:10;21.50;99.90
10678;DHT22;5387;48.722;9.110;2023-07-30T12:43:37;21.20;99.90
10678;DHT22;5387;48.722;9.110;2023-07-30T12:46:05;21.20;99.90
10678;DHT22;5387;48.722;9.110;2023-07-30T12:48:32;21.50;99.90
10678;DHT22;5387;48.722;9.110;2023-07-30T12:50:59;21.70;99.90
10678;DHT22;5387;48.722;9.110;2023-07-30T12:53:26;21.20;99.90
10678;DHT22;5387;48.722;9.110;2023-07-30T12:55:53;21.10;99.90
10678;DHT22;5387;48.722;9.110;2023-07-30T12:58:19;21.10;99.90
10678;DHT22;5387;48.722;9.110;2023-07-30T13:00:46;20.90;99.90
10678;DHT22;5387;48.722;9.110;2023-07-30T13:03:14;21.10;99.90
10678;DHT22;5387;48.722;9.110;2023-07-30T13:05:41;21.80;99.90
10678;DHT22;5387;48.722;9.110;2023-07-30T13:08:08;22.60;99.90
10678;DHT22;5387;48.722;9.110;2023-07-30T13:10:35;23.60;99.90
10678;DHT22;5387;48.722;9.110;2023-07-30T13:13:02;24.20;99.90
10678;DHT22;5387;48.722;9.110;2023-07-30T13:15:28;24.40;99.90
10678;DHT22;5387;48.722;9.110;2023-07-30T13:17:55;23.70;99.90
10678;DHT22;5387;48.722;9.110;2023-07-30T13:20:23;23.80;99.90
10678;DHT22;5387;48.722;9.110;2023-07-30T13:22:50;23.40;99.90
10678;DHT22;5387;48.722;9.110;2023-07-30T13:25:17;23.00;99.90
10678;DHT22;5387;48.722;9.110;2023-07-30T13:27:45;22.40;99.90
10678;DHT22;5387;48.722;9.110;2023-07-30T13:30:12;21.80;99.90
10678;DHT22;5387;48.722;9.110;2023-07-30T13:32:38;21.40;99.90
10678;DHT22;5387;48.722;9.110;2023-07-30T13:35:05;21.80;99.90
10678;DHT22;5387;48.722;9.110;2023-07-30T13:37:34;21.90;99.90
10678;DHT22;5387;48.722;9.110;2023-07-30T13:40:01;21.80;99.90
10678;DHT22;5387;48.722;9.110;2023-07-30T13:42:27;21.70;99.90
10678;DHT22;5387;48.722;9.110;2023-07-30T13:44:54;22.30;99.90
10678;DHT22;5387;48.722;9.110;2023-07-30T13:47:21;22.50;99.90
10678;DHT22;5387;48.722;9.110;2023-07-30T13:49:49;22.40;99.90
10678;DHT22;5387;48.722;9.110;2023-07-30T13:52:15;22.70;99.90
10678;DHT22;5387;48.722;9.110;2023-07-30T13:54:43;22.70;99.90
10678;DHT22;5387;48.722;9.110;2023-07-30T13:57:11;22.90;99.90
10678;DHT22;5387;48.722;9.110;2023-07-30T13:59:37;23.00;99.90
10678;DHT22;5387;48.722;9.110;2023-07-30T14:02:05;22.60;99.90
10678;DHT22;5387;48.722;9.110;2023-07-30T14:04:32;22.30;99.90
10678;DHT22;5387;48.722;9.110;2023-07-30T14:06:59;22.20;99.90
10678;DHT22;5387;48.722;9.110;2023-07-30T14:09:25;22.20;99.90
10678;DHT22;5387;48.722;9.110;2023-07-30T14:12:00;21.90;99.90
10678;DHT22;5387;48.722;9.110;2023-07-30T14:14:26;21.60;99.90
10678;DHT22;5387;48.722;9.110;2023-07-30T14:16:54;21.50;99.90
10678;DHT22;5387;48.722;9.110;2023-07-30T14:19:20;21.40;99.90
10678;DHT22;5387;48.722;9.110;2023-07-30T14:21:47;21.30;99.90
10678;DHT22;5387;48.722;9.110;2023-07-30T14:24:14;21.30;99.90
10678;DHT22;5387;48.722;9.110;2023-07-30T14:26:41;20.90;99.90
10678;DHT22;5387;48.722;9.110;2023-07-30T14:29:09;20.90;99.90
10678;DHT22;5387;48.722;9.110;2023-07-30T14:31:36;21.20;99.90
10678;DHT22;5387;48.722;9.110;2023-07-30T14:34:03;21.40;99.90
10678;DHT22;5387;48.722;9.110;2023-07-30T14:36:30;21.50;99.90
10678;DHT22;5387;48.722;9.110;2023-07-30T14:38:56;21.30;99.90
10678;DHT22;5387;48.722;9.110;2023-07-30T14:41:23;21.10;99.90
10678;DHT22;5387;48.722;9.110;2023-07-30T14:43:50;21.10;99.90
10678;DHT22;5387;48.722;9.110;2023-07-30T14:46:18;21.00;99.90
10678;DHT22;5387;48.722;9.110;2023-07-30T14:48:45;21.20;99.90
10678;DHT22;5387;48.722;9.110;2023-07-30T14:51:12;21.30;99.90
10678;DHT22;5387;48.722;9.110;2023-07-30T14:53:38;21.40;99.90
10678;DHT22;5387;48.722;9.110;2023-07-30T14:56:05;21.60;99.90
10678;DHT22;5387;48.722;9.110;2023-07-30T14:58:32;21.60;99.90
10678;DHT22;5387;48.722;9.110;2023-07-30T15:00:59;21.40;99.90
10678;DHT22;5387;48.722;9.110;2023-07-30T15:03:27;21.00;99.90
10678;DHT22;5387;48.722;9.110;2023-07-30T15:05:53;21.00;99.90
10678;DHT22;5387;48.722;9.110;2023-07-30T15:08:20;21.20;99.90
10678;DHT22;5387;48.722;9.110;2023-07-30T15:10:47;21.10;99.90
10678;DHT22;5387;48.722;9.110;2023-07-30T15:13:14;21.00;99.90
10678;DHT22;5387;48.722;9.110;2023-07-30T15:15:41;21.10;99.90
10678;DHT22;5387;48.722;9.110;2023-07-30T15:18:08;21.10;99.90
10678;DHT22;5387;48.722;9.110;2023-07-30T15:20:36;21.20;99.90
10678;DHT22;5387;48.722;9.110;2023-07-30T15:23:04;21.00;99.90
10678;DHT22;5387;48.722;9.110;2023-07-30T15:25:31;20.80;99.90
10678;DHT22;5387;48.722;9.110;2023-07-30T15:27:57;20.60;99.90
10678;DHT22;5387;48.722;9.110;2023-07-30T15:30:26;20.60;99.90
10678;DHT22;5387;48.722;9.110;2023-07-30T15:32:53;20.40;99.90
10678;DHT22;5387;48.722;9.110;2023-07-30T15:35:20;20.50;99.90
10678;DHT22;5387;48.722;9.110;2023-07-30T15:37:48;20.50;99.90
10678;DHT22;5387;48.722;9.110;2023-07-30T15:40:16;20.50;99.90
10678;DHT22;5387;48.722;9.110;2023-07-30T15:42:43;20.60;99.90
10678;DHT22;5387;48.722;9.110;2023-07-30T15:45:10;20.60;99.90
10678;DHT22;5387;48.722;9.110;2023-07-30T15:47:37;20.40;99.90
10678;DHT22;5387;48.722;9.110;2023-07-30T15:50:05;20.30;99.90
10678;DHT22;5387;48.722;9.110;2023-07-30T15:52:32;20.30;99.90
10678;DHT22;5387;48.722;9.110;2023-07-30T15:55:00;20.40;99.90
10678;DHT22;5387;48.722;9.110;2023-07-30T15:57:27;20.50;99.90
10678;DHT22;5387;48.722;9.110;2023-07-30T15:59:53;20.60;99.90